sensor_id;sensor_type;location;lat;lon;timestamp;temperature;humidity
19340;HTU21D;9804;52.350;6.684;2022-12-07T00:01:35;7.00;-6.00
19340;HTU21D;9804;52.350;6.684;2022-12-07T00:04:01;6.85;-6.00
19340;HTU21D;9804;52.350;6.684;2022-12-07T00:06:34;6.97;-6.00
19340;HTU21D;9804;52.350;6.684;2022-12-07T00:09:00;6.66;-6.00
19340;HTU21D;9804;52.350;6.684;2022-12-07T00:11:26;6.90;-6.00
19340;HTU21D;9804;52.350;6.684;2022-12-07T00:13:53;6.71;-6.00
19340;HTU21D;9804;52.350;6.684;2022-12-07T00:16:21;6.58;-6.00
19340;HTU21D;9804;52.350;6.684;2022-12-07T00:18:47;6.66;-6.00
19340;HTU21D;9804;52.350;6.684;2022-12-07T00:21:15;6.59;-6.00
19340;HTU21D;9804;52.350;6.684;2022-12-07T00:23:43;6.59;-6.00
19340;HTU21D;9804;52.350;6.684;2022-12-07T00:26:11;6.80;-6.00
19340;HTU21D;9804;52.350;6.684;2022-12-07T00:28:37;6.48;-6.00
19340;HTU21D;9804;52.350;6.684;2022-12-07T00:31:08;6.53;-6.00
19340;HTU21D;9804;52.350;6.684;2022-12-07T00:33:34;6.51;-6.00
19340;HTU21D;9804;52.350;6.684;2022-12-07T00:36:01;6.60;-6.00
19340;HTU21D;9804;52.350;6.684;2022-12-07T00:38:29;6.53;-6.00
19340;HTU21D;9804;52.350;6.684;2022-12-07T00:41:18;6.64;-6.00
19340;HTU21D;9804;52.350;6.684;2022-12-07T00:43:45;6.55;-6.00
19340;HTU21D;9804;52.350;6.684;2022-12-07T00:46:12;6.54;-6.00
19340;HTU21D;9804;52.350;6.684;2022-12-07T00:48:38;6.61;-6.00
19340;HTU21D;9804;52.350;6.684;2022-12-07T00:51:03;6.52;-6.00
19340;HTU21D;9804;52.350;6.684;2022-12-07T00:53:30;6.41;-6.00
19340;HTU21D;9804;52.350;6.684;2022-12-07T00:55:55;6.38;-6.00
19340;HTU21D;9804;52.350;6.684;2022-12-07T00:58:22;6.39;-6.00
19340;HTU21D;9804;52.350;6.684;2022-12-07T01:00:48;6.37;-6.00
19340;HTU21D;9804;52.350;6.684;2022-12-07T01:03:14;6.34;-6.00
19340;HTU21D;9804;52.350;6.684;2022-12-07T01:05:40;6.23;-6.00
19340;HTU21D;9804;52.350;6.684;2022-12-07T01:08:13;6.17;-6.00
19340;HTU21D;9804;52.350;6.684;2022-12-07T01:10:38;6.12;-6.00
19340;HTU21D;9804;52.350;6.684;2022-12-07T01:13:04;6.15;-6.00
19340;HTU21D;9804;52.350;6.684;2022-12-07T01:15:29;6.28;-6.00
19340;HTU21D;9804;52.350;6.684;2022-12-07T01:17:54;6.13;-6.00
19340;HTU21D;9804;52.350;6.684;2022-12-07T01:20:20;6.25;-6.00
19340;HTU21D;9804;52.350;6.684;2022-12-07T01:22:45;6.38;-6.00
19340;HTU21D;9804;52.350;6.684;2022-12-07T01:25:11;6.06;-6.00
19340;HTU21D;9804;52.350;6.684;2022-12-07T01:27:37;6.15;-6.00
19340;HTU21D;9804;52.350;6.684;2022-12-07T01:30:04;6.17;-6.00
19340;HTU21D;9804;52.350;6.684;2022-12-07T01:32:30;6.17;-6.00
19340;HTU21D;9804;52.350;6.684;2022-12-07T01:34:56;6.24;-6.00
19340;HTU21D;9804;52.350;6.684;2022-12-07T01:37:21;6.24;-6.00
19340;HTU21D;9804;52.350;6.684;2022-12-07T01:39:49;6.17;-6.00
19340;HTU21D;9804;52.350;6.684;2022-12-07T01:42:14;6.19;-6.00
19340;HTU21D;9804;52.350;6.684;2022-12-07T01:47:57;6.13;-6.00
19340;HTU21D;9804;52.350;6.684;2022-12-07T01:50:25;5.96;-6.00
19340;HTU21D;9804;52.350;6.684;2022-12-07T01:52:54;6.06;-6.00
19340;HTU21D;9804;52.350;6.684;2022-12-07T01:55:20;6.06;-6.00
19340;HTU21D;9804;52.350;6.684;2022-12-07T01:57:48;5.93;-6.00
19340;HTU21D;9804;52.350;6.684;2022-12-07T02:00:14;5.93;-6.00
19340;HTU21D;9804;52.350;6.684;2022-12-07T02:03:05;5.95;-6.00
19340;HTU21D;9804;52.350;6.684;2022-12-07T02:05:33;5.90;-6.00
19340;HTU21D;9804;52.350;6.684;2022-12-07T02:07:59;5.72;-6.00
19340;HTU21D;9804;52.350;6.684;2022-12-07T02:10:27;5.83;-6.00
19340;HTU21D;9804;52.350;6.684;2022-12-07T02:13:00;5.96;-6.00
19340;HTU21D;9804;52.350;6.684;2022-12-07T02:15:46;6.04;-6.00
19340;HTU21D;9804;52.350;6.684;2022-12-07T02:21:11;6.05;-6.00
19340;HTU21D;9804;52.350;6.684;2022-12-07T02:23:48;6.12;-6.00
19340;HTU21D;9804;52.350;6.684;2022-12-07T02:26:41;6.09;-6.00
19340;HTU21D;9804;52.350;6.684;2022-12-07T02:29:25;6.24;-6.00
19340;HTU21D;9804;52.350;6.684;2022-12-07T02:32:11;6.16;-6.00
19340;HTU21D;9804;52.350;6.684;2022-12-07T02:37:29;6.22;-6.00
19340;HTU21D;9804;52.350;6.684;2022-12-07T02:40:13;5.95;-6.00
19340;HTU21D;9804;52.350;6.684;2022-12-07T02:42:46;6.10;-6.00
19340;HTU21D;9804;52.350;6.684;2022-12-07T02:45:16;6.11;-6.00
19340;HTU21D;9804;52.350;6.684;2022-12-07T02:47:43;6.13;-6.00
19340;HTU21D;9804;52.350;6.684;2022-12-07T02:50:09;6.01;-6.00
19340;HTU21D;9804;52.350;6.684;2022-12-07T02:52:35;6.19;-6.00
19340;HTU21D;9804;52.350;6.684;2022-12-07T02:55:01;6.17;-6.00
19340;HTU21D;9804;52.350;6.684;2022-12-07T02:57:38;6.23;-6.00
19340;HTU21D;9804;52.350;6.684;2022-12-07T03:00:13;6.34;-6.00
19340;HTU21D;9804;52.350;6.684;2022-12-07T03:03:00;6.20;-6.00
19340;HTU21D;9804;52.350;6.684;2022-12-07T03:05:36;6.13;-6.00
19340;HTU21D;9804;52.350;6.684;2022-12-07T03:11:02;6.09;-6.00
19340;HTU21D;9804;52.350;6.684;2022-12-07T03:16:16;6.35;-6.00
19340;HTU21D;9804;52.350;6.684;2022-12-07T03:18:58;6.15;-6.00
19340;HTU21D;9804;52.350;6.684;2022-12-07T03:21:27;6.22;-6.00
19340;HTU21D;9804;52.350;6.684;2022-12-07T03:23:56;5.96;-6.00
19340;HTU21D;9804;52.350;6.684;2022-12-07T03:26:35;6.02;-6.00
19340;HTU21D;9804;52.350;6.684;2022-12-07T03:29:06;6.17;-6.00
19340;HTU21D;9804;52.350;6.684;2022-12-07T03:31:36;6.11;-6.00
19340;HTU21D;9804;52.350;6.684;2022-12-07T03:34:19;6.01;-6.00
19340;HTU21D;9804;52.350;6.684;2022-12-07T03:36:51;6.06;-6.00
19340;HTU21D;9804;52.350;6.684;2022-12-07T03:39:30;6.13;-6.00
19340;HTU21D;9804;52.350;6.684;2022-12-07T03:41:59;6.12;-6.00
19340;HTU21D;9804;52.350;6.684;2022-12-07T03:44:26;6.12;-6.00
19340;HTU21D;9804;52.350;6.684;2022-12-07T03:49:43;5.99;-6.00
19340;HTU21D;9804;52.350;6.684;2022-12-07T03:55:09;6.11;-6.00
19340;HTU21D;9804;52.350;6.684;2022-12-07T03:57:36;5.89;-6.00
19340;HTU21D;9804;52.350;6.684;2022-12-07T04:00:04;6.01;-6.00
19340;HTU21D;9804;52.350;6.684;2022-12-07T04:02:31;6.14;-6.00
19340;HTU21D;9804;52.350;6.684;2022-12-07T04:04:57;6.12;-6.00
19340;HTU21D;9804;52.350;6.684;2022-12-07T04:07:22;6.15;-6.00
19340;HTU21D;9804;52.350;6.684;2022-12-07T04:09:48;6.15;-6.00
19340;HTU21D;9804;52.350;6.684;2022-12-07T04:12:13;6.38;-6.00
19340;HTU21D;9804;52.350;6.684;2022-12-07T04:14:38;6.39;-6.00
19340;HTU21D;9804;52.350;6.684;2022-12-07T04:17:04;6.43;-6.00
19340;HTU21D;9804;52.350;6.684;2022-12-07T04:19:31;6.09;-6.00
19340;HTU21D;9804;52.350;6.684;2022-12-07T04:21:58;6.37;-6.00
19340;HTU21D;9804;52.350;6.684;2022-12-07T04:24:24;6.24;-6.00
19340;HTU21D;9804;52.350;6.684;2022-12-07T04:26:49;6.23;-6.00
19340;HTU21D;9804;52.350;6.684;2022-12-07T04:29:15;6.25;-6.00
19340;HTU21D;9804;52.350;6.684;2022-12-07T04:31:41;5.94;-6.00
19340;HTU21D;9804;52.350;6.684;2022-12-07T04:34:07;6.15;-6.00
19340;HTU21D;9804;52.350;6.684;2022-12-07T04:36:32;6.21;-6.00
19340;HTU21D;9804;52.350;6.684;2022-12-07T04:38:58;5.99;-6.00
19340;HTU21D;9804;52.350;6.684;2022-12-07T04:41:24;6.02;-6.00
19340;HTU21D;9804;52.350;6.684;2022-12-07T04:43:57;5.94;-6.00
19340;HTU21D;9804;52.350;6.684;2022-12-07T04:46:24;5.89;-6.00
19340;HTU21D;9804;52.350;6.684;2022-12-07T04:48:51;5.91;-6.00
19340;HTU21D;9804;52.350;6.684;2022-12-07T04:51:20;5.70;-6.00
19340;HTU21D;9804;52.350;6.684;2022-12-07T04:53:45;5.77;-6.00
19340;HTU21D;9804;52.350;6.684;2022-12-07T04:56:11;5.70;-6.00
19340;HTU21D;9804;52.350;6.684;2022-12-07T04:58:36;5.93;-6.00
19340;HTU21D;9804;52.350;6.684;2022-12-07T05:01:01;5.86;-6.00
19340;HTU21D;9804;52.350;6.684;2022-12-07T05:03:26;5.61;-6.00
19340;HTU21D;9804;52.350;6.684;2022-12-07T05:05:52;5.72;-6.00
19340;HTU21D;9804;52.350;6.684;2022-12-07T05:08:17;5.45;-6.00
19340;HTU21D;9804;52.350;6.684;2022-12-07T05:10:42;5.53;-6.00
19340;HTU21D;9804;52.350;6.684;2022-12-07T05:13:08;5.46;-6.00
19340;HTU21D;9804;52.350;6.684;2022-12-07T05:15:33;5.55;-6.00
19340;HTU21D;9804;52.350;6.684;2022-12-07T05:17:59;5.43;-6.00
19340;HTU21D;9804;52.350;6.684;2022-12-07T05:20:24;5.57;-6.00
19340;HTU21D;9804;52.350;6.684;2022-12-07T05:22:49;5.53;-6.00
19340;HTU21D;9804;52.350;6.684;2022-12-07T05:25:15;5.47;-6.00
19340;HTU21D;9804;52.350;6.684;2022-12-07T05:27:40;5.55;-6.00
19340;HTU21D;9804;52.350;6.684;2022-12-07T05:30:06;5.39;-6.00
19340;HTU21D;9804;52.350;6.684;2022-12-07T05:32:31;5.47;-6.00
19340;HTU21D;9804;52.350;6.684;2022-12-07T05:34:56;5.49;-6.00
19340;HTU21D;9804;52.350;6.684;2022-12-07T05:37:22;5.41;-6.00
19340;HTU21D;9804;52.350;6.684;2022-12-07T05:39:47;5.40;-6.00
19340;HTU21D;9804;52.350;6.684;2022-12-07T05:42:12;5.35;-6.00
19340;HTU21D;9804;52.350;6.684;2022-12-07T05:44:42;5.41;-6.00
19340;HTU21D;9804;52.350;6.684;2022-12-07T05:47:08;5.59;-6.00
19340;HTU21D;9804;52.350;6.684;2022-12-07T05:49:34;5.50;-6.00
19340;HTU21D;9804;52.350;6.684;2022-12-07T05:51:59;5.52;-6.00
19340;HTU21D;9804;52.350;6.684;2022-12-07T05:54:25;5.35;-6.00
19340;HTU21D;9804;52.350;6.684;2022-12-07T05:56:50;5.39;-6.00
19340;HTU21D;9804;52.350;6.684;2022-12-07T05:59:16;5.47;-6.00
19340;HTU21D;9804;52.350;6.684;2022-12-07T06:04:17;5.51;-6.00
19340;HTU21D;9804;52.350;6.684;2022-12-07T06:06:43;5.39;-6.00
19340;HTU21D;9804;52.350;6.684;2022-12-07T06:09:08;5.43;-6.00
19340;HTU21D;9804;52.350;6.684;2022-12-07T06:11:34;5.51;-6.00
19340;HTU21D;9804;52.350;6.684;2022-12-07T06:14:18;5.36;-6.00
19340;HTU21D;9804;52.350;6.684;2022-12-07T06:16:43;5.31;-6.00
19340;HTU21D;9804;52.350;6.684;2022-12-07T06:19:09;5.33;-6.00
19340;HTU21D;9804;52.350;6.684;2022-12-07T06:21:34;5.39;-6.00
19340;HTU21D;9804;52.350;6.684;2022-12-07T06:23:59;5.45;-6.00
19340;HTU21D;9804;52.350;6.684;2022-12-07T06:26:25;5.21;-6.00
19340;HTU21D;9804;52.350;6.684;2022-12-07T06:28:50;5.23;-6.00
19340;HTU21D;9804;52.350;6.684;2022-12-07T06:31:16;5.18;-6.00
19340;HTU21D;9804;52.350;6.684;2022-12-07T06:33:41;5.13;-6.00
19340;HTU21D;9804;52.350;6.684;2022-12-07T06:36:07;5.27;-6.00
19340;HTU21D;9804;52.350;6.684;2022-12-07T06:38:33;5.31;-6.00
19340;HTU21D;9804;52.350;6.684;2022-12-07T06:40:58;5.28;-6.00
19340;HTU21D;9804;52.350;6.684;2022-12-07T06:43:23;5.37;-6.00
19340;HTU21D;9804;52.350;6.684;2022-12-07T06:45:49;5.32;-6.00
19340;HTU21D;9804;52.350;6.684;2022-12-07T06:48:14;5.16;-6.00
19340;HTU21D;9804;52.350;6.684;2022-12-07T06:50:39;5.40;-6.00
19340;HTU21D;9804;52.350;6.684;2022-12-07T06:53:05;5.25;-6.00
19340;HTU21D;9804;52.350;6.684;2022-12-07T06:55:30;5.13;-6.00
19340;HTU21D;9804;52.350;6.684;2022-12-07T06:57:56;5.26;-6.00
19340;HTU21D;9804;52.350;6.684;2022-12-07T07:00:21;5.24;-6.00
19340;HTU21D;9804;52.350;6.684;2022-12-07T07:02:47;5.03;-6.00
19340;HTU21D;9804;52.350;6.684;2022-12-07T07:05:12;5.25;-6.00
19340;HTU21D;9804;52.350;6.684;2022-12-07T07:07:37;5.24;-6.00
19340;HTU21D;9804;52.350;6.684;2022-12-07T07:10:03;5.30;-6.00
19340;HTU21D;9804;52.350;6.684;2022-12-07T07:12:29;5.17;-6.00
19340;HTU21D;9804;52.350;6.684;2022-12-07T07:14:54;5.18;-6.00
19340;HTU21D;9804;52.350;6.684;2022-12-07T07:17:19;5.49;-6.00
19340;HTU21D;9804;52.350;6.684;2022-12-07T07:19:45;5.25;-6.00
19340;HTU21D;9804;52.350;6.684;2022-12-07T07:22:10;5.42;-6.00
19340;HTU21D;9804;52.350;6.684;2022-12-07T07:24:35;5.25;-6.00
19340;HTU21D;9804;52.350;6.684;2022-12-07T07:27:01;5.60;-6.00
19340;HTU21D;9804;52.350;6.684;2022-12-07T07:29:26;5.34;-6.00
19340;HTU21D;9804;52.350;6.684;2022-12-07T07:31:52;5.36;-6.00
19340;HTU21D;9804;52.350;6.684;2022-12-07T07:34:17;5.43;-6.00
19340;HTU21D;9804;52.350;6.684;2022-12-07T07:36:42;5.75;-6.00
19340;HTU21D;9804;52.350;6.684;2022-12-07T07:39:09;5.61;-6.00
19340;HTU21D;9804;52.350;6.684;2022-12-07T07:41:35;5.74;-6.00
19340;HTU21D;9804;52.350;6.684;2022-12-07T07:44:01;5.80;-6.00
19340;HTU21D;9804;52.350;6.684;2022-12-07T07:46:26;5.86;-6.00
19340;HTU21D;9804;52.350;6.684;2022-12-07T07:48:51;5.69;-6.00
19340;HTU21D;9804;52.350;6.684;2022-12-07T07:51:17;5.68;-6.00
19340;HTU21D;9804;52.350;6.684;2022-12-07T07:53:42;5.77;-6.00
19340;HTU21D;9804;52.350;6.684;2022-12-07T07:56:07;5.72;-6.00
19340;HTU21D;9804;52.350;6.684;2022-12-07T07:58:33;5.69;-6.00
19340;HTU21D;9804;52.350;6.684;2022-12-07T08:01:04;5.62;-6.00
19340;HTU21D;9804;52.350;6.684;2022-12-07T08:03:29;5.69;-6.00
19340;HTU21D;9804;52.350;6.684;2022-12-07T08:05:55;5.56;-6.00
19340;HTU21D;9804;52.350;6.684;2022-12-07T08:08:20;5.54;-6.00
19340;HTU21D;9804;52.350;6.684;2022-12-07T08:10:46;5.43;-6.00
19340;HTU21D;9804;52.350;6.684;2022-12-07T08:13:11;5.60;-6.00
19340;HTU21D;9804;52.350;6.684;2022-12-07T08:15:38;5.54;-6.00
19340;HTU21D;9804;52.350;6.684;2022-12-07T08:18:03;5.69;-6.00
19340;HTU21D;9804;52.350;6.684;2022-12-07T08:20:30;5.67;-6.00
19340;HTU21D;9804;52.350;6.684;2022-12-07T08:22:55;5.54;-6.00
19340;HTU21D;9804;52.350;6.684;2022-12-07T08:25:21;5.70;-6.00
19340;HTU21D;9804;52.350;6.684;2022-12-07T08:27:50;5.70;-6.00
19340;HTU21D;9804;52.350;6.684;2022-12-07T08:30:16;5.66;-6.00
19340;HTU21D;9804;52.350;6.684;2022-12-07T08:32:41;5.76;-6.00
19340;HTU21D;9804;52.350;6.684;2022-12-07T08:35:08;5.51;-6.00
19340;HTU21D;9804;52.350;6.684;2022-12-07T08:37:34;5.76;-6.00
19340;HTU21D;9804;52.350;6.684;2022-12-07T08:39:59;5.85;-6.00
19340;HTU21D;9804;52.350;6.684;2022-12-07T08:42:24;5.76;-6.00
19340;HTU21D;9804;52.350;6.684;2022-12-07T08:44:54;5.92;-6.00
19340;HTU21D;9804;52.350;6.684;2022-12-07T08:47:20;5.93;-6.00
19340;HTU21D;9804;52.350;6.684;2022-12-07T08:49:47;6.10;-6.00
19340;HTU21D;9804;52.350;6.684;2022-12-07T08:52:13;6.20;-6.00
19340;HTU21D;9804;52.350;6.684;2022-12-07T08:54:40;6.16;-6.00
19340;HTU21D;9804;52.350;6.684;2022-12-07T08:57:06;6.31;-6.00
19340;HTU21D;9804;52.350;6.684;2022-12-07T08:59:33;6.56;-6.00
19340;HTU21D;9804;52.350;6.684;2022-12-07T09:01:59;6.43;-6.00
19340;HTU21D;9804;52.350;6.684;2022-12-07T09:04:24;6.58;-6.00
19340;HTU21D;9804;52.350;6.684;2022-12-07T09:06:49;6.75;-6.00
19340;HTU21D;9804;52.350;6.684;2022-12-07T09:09:15;6.69;-6.00
19340;HTU21D;9804;52.350;6.684;2022-12-07T09:11:40;6.66;-6.00
19340;HTU21D;9804;52.350;6.684;2022-12-07T09:14:06;6.67;-6.00
19340;HTU21D;9804;52.350;6.684;2022-12-07T09:16:31;6.55;-6.00
19340;HTU21D;9804;52.350;6.684;2022-12-07T09:18:57;6.58;-6.00
19340;HTU21D;9804;52.350;6.684;2022-12-07T09:21:22;6.82;-6.00
19340;HTU21D;9804;52.350;6.684;2022-12-07T09:23:47;6.56;-6.00
19340;HTU21D;9804;52.350;6.684;2022-12-07T09:26:13;7.05;-6.00
19340;HTU21D;9804;52.350;6.684;2022-12-07T09:28:38;6.99;-6.00
19340;HTU21D;9804;52.350;6.684;2022-12-07T09:31:04;6.75;-6.00
19340;HTU21D;9804;52.350;6.684;2022-12-07T09:33:29;6.93;-6.00
19340;HTU21D;9804;52.350;6.684;2022-12-07T09:35:55;6.86;-6.00
19340;HTU21D;9804;52.350;6.684;2022-12-07T09:38:20;6.94;-6.00
19340;HTU21D;9804;52.350;6.684;2022-12-07T09:40:47;6.98;-6.00
19340;HTU21D;9804;52.350;6.684;2022-12-07T09:43:15;6.81;-6.00
19340;HTU21D;9804;52.350;6.684;2022-12-07T09:45:42;6.93;-6.00
19340;HTU21D;9804;52.350;6.684;2022-12-07T09:48:17;6.70;-6.00
19340;HTU21D;9804;52.350;6.684;2022-12-07T09:50:43;6.72;-6.00
19340;HTU21D;9804;52.350;6.684;2022-12-07T09:53:14;6.84;-6.00
19340;HTU21D;9804;52.350;6.684;2022-12-07T09:55:41;6.75;-6.00
19340;HTU21D;9804;52.350;6.684;2022-12-07T09:58:23;7.03;-6.00
19340;HTU21D;9804;52.350;6.684;2022-12-07T10:00:57;6.72;-6.00
19340;HTU21D;9804;52.350;6.684;2022-12-07T10:03:27;6.90;-6.00
19340;HTU21D;9804;52.350;6.684;2022-12-07T10:05:53;6.84;-6.00
19340;HTU21D;9804;52.350;6.684;2022-12-07T10:08:19;6.91;-6.00
19340;HTU21D;9804;52.350;6.684;2022-12-07T10:10:54;6.91;-6.00
19340;HTU21D;9804;52.350;6.684;2022-12-07T10:13:46;6.89;-6.00
19340;HTU21D;9804;52.350;6.684;2022-12-07T10:19:32;7.01;-6.00
19340;HTU21D;9804;52.350;6.684;2022-12-07T10:24:26;7.74;-6.00
19340;HTU21D;9804;52.350;6.684;2022-12-07T10:26:52;7.78;-6.00
19340;HTU21D;9804;52.350;6.684;2022-12-07T10:29:33;7.92;-6.00
19340;HTU21D;9804;52.350;6.684;2022-12-07T10:32:29;7.73;-6.00
19340;HTU21D;9804;52.350;6.684;2022-12-07T10:37:47;7.69;-6.00
19340;HTU21D;9804;52.350;6.684;2022-12-07T10:40:26;7.90;-6.00
19340;HTU21D;9804;52.350;6.684;2022-12-07T10:49:04;7.92;-6.00
19340;HTU21D;9804;52.350;6.684;2022-12-07T10:51:49;8.11;-6.00
19340;HTU21D;9804;52.350;6.684;2022-12-07T10:54:31;8.15;-6.00
19340;HTU21D;9804;52.350;6.684;2022-12-07T11:02:58;7.94;-6.00
19340;HTU21D;9804;52.350;6.684;2022-12-07T11:11:11;8.07;-6.00
19340;HTU21D;9804;52.350;6.684;2022-12-07T11:14:00;8.12;-6.00
19340;HTU21D;9804;52.350;6.684;2022-12-07T11:19:13;8.31;-6.00
19340;HTU21D;9804;52.350;6.684;2022-12-07T11:21:51;8.65;-6.00
19340;HTU21D;9804;52.350;6.684;2022-12-07T11:24:54;8.38;-6.00
19340;HTU21D;9804;52.350;6.684;2022-12-07T11:38:07;8.06;-6.00
19340;HTU21D;9804;52.350;6.684;2022-12-07T11:40:35;7.99;-6.00
19340;HTU21D;9804;52.350;6.684;2022-12-07T11:43:13;8.39;-6.00
19340;HTU21D;9804;52.350;6.684;2022-12-07T11:45:45;8.11;-6.00
19340;HTU21D;9804;52.350;6.684;2022-12-07T11:48:17;8.51;-6.00
19340;HTU21D;9804;52.350;6.684;2022-12-07T11:50:48;8.58;-6.00
19340;HTU21D;9804;52.350;6.684;2022-12-07T11:53:21;8.58;-6.00
19340;HTU21D;9804;52.350;6.684;2022-12-07T11:55:59;8.53;-6.00
19340;HTU21D;9804;52.350;6.684;2022-12-07T12:01:42;8.55;-6.00
19340;HTU21D;9804;52.350;6.684;2022-12-07T12:06:37;8.95;-6.00
19340;HTU21D;9804;52.350;6.684;2022-12-07T12:09:18;8.98;-6.00
19340;HTU21D;9804;52.350;6.684;2022-12-07T12:19:58;8.65;-6.00
19340;HTU21D;9804;52.350;6.684;2022-12-07T12:22:32;8.48;-6.00
19340;HTU21D;9804;52.350;6.684;2022-12-07T12:24:59;8.67;-6.00
19340;HTU21D;9804;52.350;6.684;2022-12-07T12:27:27;8.36;-6.00
19340;HTU21D;9804;52.350;6.684;2022-12-07T12:29:57;9.03;-6.00
19340;HTU21D;9804;52.350;6.684;2022-12-07T12:35:01;8.43;-6.00
19340;HTU21D;9804;52.350;6.684;2022-12-07T12:42:49;8.64;-6.00
19340;HTU21D;9804;52.350;6.684;2022-12-07T12:45:32;8.89;-6.00
19340;HTU21D;9804;52.350;6.684;2022-12-07T12:47:59;8.75;-6.00
19340;HTU21D;9804;52.350;6.684;2022-12-07T12:50:35;8.86;-6.00
19340;HTU21D;9804;52.350;6.684;2022-12-07T12:53:12;9.05;-6.00
19340;HTU21D;9804;52.350;6.684;2022-12-07T13:00:45;8.73;-6.00
19340;HTU21D;9804;52.350;6.684;2022-12-07T13:03:24;8.74;-6.00
19340;HTU21D;9804;52.350;6.684;2022-12-07T13:08:42;8.74;-6.00
19340;HTU21D;9804;52.350;6.684;2022-12-07T13:11:41;8.77;-6.00
19340;HTU21D;9804;52.350;6.684;2022-12-07T13:17:09;8.80;-6.00
19340;HTU21D;9804;52.350;6.684;2022-12-07T13:24:58;8.48;-6.00
19340;HTU21D;9804;52.350;6.684;2022-12-07T13:27:25;8.79;-6.00
19340;HTU21D;9804;52.350;6.684;2022-12-07T13:29:52;8.56;-6.00
19340;HTU21D;9804;52.350;6.684;2022-12-07T13:32:26;8.58;-6.00
19340;HTU21D;9804;52.350;6.684;2022-12-07T13:34:52;8.61;-6.00
19340;HTU21D;9804;52.350;6.684;2022-12-07T13:37:21;8.44;-6.00
19340;HTU21D;9804;52.350;6.684;2022-12-07T13:39:51;8.43;-6.00
19340;HTU21D;9804;52.350;6.684;2022-12-07T13:42:28;8.43;-6.00
19340;HTU21D;9804;52.350;6.684;2022-12-07T13:44:54;8.58;-6.00
19340;HTU21D;9804;52.350;6.684;2022-12-07T13:49:54;8.49;-6.00
19340;HTU21D;9804;52.350;6.684;2022-12-07T13:52:25;8.33;-6.00
19340;HTU21D;9804;52.350;6.684;2022-12-07T13:55:08;8.28;-6.00
19340;HTU21D;9804;52.350;6.684;2022-12-07T13:57:38;8.38;-6.00
19340;HTU21D;9804;52.350;6.684;2022-12-07T14:00:06;8.60;-6.00
19340;HTU21D;9804;52.350;6.684;2022-12-07T14:02:58;8.16;-6.00
19340;HTU21D;9804;52.350;6.684;2022-12-07T14:07:56;8.33;-6.00
19340;HTU21D;9804;52.350;6.684;2022-12-07T14:10:34;8.35;-6.00
19340;HTU21D;9804;52.350;6.684;2022-12-07T14:13:01;8.59;-6.00
19340;HTU21D;9804;52.350;6.684;2022-12-07T14:15:29;8.70;-6.00
19340;HTU21D;9804;52.350;6.684;2022-12-07T14:17:56;8.51;-6.00
19340;HTU21D;9804;52.350;6.684;2022-12-07T14:20:40;8.41;-6.00
19340;HTU21D;9804;52.350;6.684;2022-12-07T14:23:27;8.62;-6.00
19340;HTU21D;9804;52.350;6.684;2022-12-07T14:25:53;8.62;-6.00
19340;HTU21D;9804;52.350;6.684;2022-12-07T14:28:27;8.47;-6.00
19340;HTU21D;9804;52.350;6.684;2022-12-07T14:30:53;8.45;-6.00
19340;HTU21D;9804;52.350;6.684;2022-12-07T14:33:18;8.48;-6.00
19340;HTU21D;9804;52.350;6.684;2022-12-07T14:35:44;8.37;-6.00
19340;HTU21D;9804;52.350;6.684;2022-12-07T14:38:09;8.55;-6.00
19340;HTU21D;9804;52.350;6.684;2022-12-07T14:40:35;8.61;-6.00
19340;HTU21D;9804;52.350;6.684;2022-12-07T14:43:05;8.45;-6.00
19340;HTU21D;9804;52.350;6.684;2022-12-07T14:45:31;8.26;-6.00
19340;HTU21D;9804;52.350;6.684;2022-12-07T14:47:57;8.48;-6.00
19340;HTU21D;9804;52.350;6.684;2022-12-07T14:50:22;8.34;-6.00
19340;HTU21D;9804;52.350;6.684;2022-12-07T14:53:17;8.31;-6.00
19340;HTU21D;9804;52.350;6.684;2022-12-07T14:55:44;8.58;-6.00
19340;HTU21D;9804;52.350;6.684;2022-12-07T14:58:16;8.12;-6.00
19340;HTU21D;9804;52.350;6.684;2022-12-07T15:00:42;8.34;-6.00
19340;HTU21D;9804;52.350;6.684;2022-12-07T15:03:08;8.15;-6.00
19340;HTU21D;9804;52.350;6.684;2022-12-07T15:05:34;8.18;-6.00
19340;HTU21D;9804;52.350;6.684;2022-12-07T15:07:59;8.09;-6.00
19340;HTU21D;9804;52.350;6.684;2022-12-07T15:10:31;8.07;-6.00
19340;HTU21D;9804;52.350;6.684;2022-12-07T15:13:01;7.97;-6.00
19340;HTU21D;9804;52.350;6.684;2022-12-07T15:15:47;8.17;-6.00
19340;HTU21D;9804;52.350;6.684;2022-12-07T15:18:13;8.00;-6.00
19340;HTU21D;9804;52.350;6.684;2022-12-07T15:20:38;8.11;-6.00
19340;HTU21D;9804;52.350;6.684;2022-12-07T15:23:04;8.14;-6.00
19340;HTU21D;9804;52.350;6.684;2022-12-07T15:25:29;8.02;-6.00
19340;HTU21D;9804;52.350;6.684;2022-12-07T15:27:54;7.89;-6.00
19340;HTU21D;9804;52.350;6.684;2022-12-07T15:30:20;8.08;-6.00
19340;HTU21D;9804;52.350;6.684;2022-12-07T15:32:51;8.01;-6.00
19340;HTU21D;9804;52.350;6.684;2022-12-07T15:35:18;8.16;-6.00
19340;HTU21D;9804;52.350;6.684;2022-12-07T15:37:43;7.98;-6.00
19340;HTU21D;9804;52.350;6.684;2022-12-07T15:40:09;7.94;-6.00
19340;HTU21D;9804;52.350;6.684;2022-12-07T15:42:35;8.00;-6.00
19340;HTU21D;9804;52.350;6.684;2022-12-07T15:45:01;7.75;-6.00
19340;HTU21D;9804;52.350;6.684;2022-12-07T15:47:37;7.81;-6.00
19340;HTU21D;9804;52.350;6.684;2022-12-07T15:50:05;7.83;-6.00
19340;HTU21D;9804;52.350;6.684;2022-12-07T15:52:32;7.99;-6.00
19340;HTU21D;9804;52.350;6.684;2022-12-07T15:54:58;7.78;-6.00
19340;HTU21D;9804;52.350;6.684;2022-12-07T15:57:25;7.73;-6.00
19340;HTU21D;9804;52.350;6.684;2022-12-07T15:59:50;7.91;-6.00
19340;HTU21D;9804;52.350;6.684;2022-12-07T16:02:16;7.99;-6.00
19340;HTU21D;9804;52.350;6.684;2022-12-07T16:04:41;7.77;-6.00
19340;HTU21D;9804;52.350;6.684;2022-12-07T16:07:07;7.59;-6.00
19340;HTU21D;9804;52.350;6.684;2022-12-07T16:09:32;7.77;-6.00
19340;HTU21D;9804;52.350;6.684;2022-12-07T16:11:58;7.71;-6.00
19340;HTU21D;9804;52.350;6.684;2022-12-07T16:14:23;7.62;-6.00
19340;HTU21D;9804;52.350;6.684;2022-12-07T16:16:49;7.61;-6.00
19340;HTU21D;9804;52.350;6.684;2022-12-07T16:19:14;7.71;-6.00
19340;HTU21D;9804;52.350;6.684;2022-12-07T16:21:40;7.47;-6.00
19340;HTU21D;9804;52.350;6.684;2022-12-07T16:24:06;7.50;-6.00
19340;HTU21D;9804;52.350;6.684;2022-12-07T16:26:31;7.49;-6.00
19340;HTU21D;9804;52.350;6.684;2022-12-07T16:28:57;7.81;-6.00
19340;HTU21D;9804;52.350;6.684;2022-12-07T16:31:25;7.64;-6.00
19340;HTU21D;9804;52.350;6.684;2022-12-07T16:33:53;7.78;-6.00
19340;HTU21D;9804;52.350;6.684;2022-12-07T16:36:18;7.76;-6.00
19340;HTU21D;9804;52.350;6.684;2022-12-07T16:38:46;7.78;-6.00
19340;HTU21D;9804;52.350;6.684;2022-12-07T16:41:11;7.64;-6.00
19340;HTU21D;9804;52.350;6.684;2022-12-07T16:43:37;7.48;-6.00
19340;HTU21D;9804;52.350;6.684;2022-12-07T16:46:03;7.47;-6.00
19340;HTU21D;9804;52.350;6.684;2022-12-07T16:48:29;7.34;-6.00
19340;HTU21D;9804;52.350;6.684;2022-12-07T16:50:55;7.35;-6.00
19340;HTU21D;9804;52.350;6.684;2022-12-07T16:53:21;7.25;-6.00
19340;HTU21D;9804;52.350;6.684;2022-12-07T16:55:47;7.41;-6.00
19340;HTU21D;9804;52.350;6.684;2022-12-07T16:58:13;7.35;-6.00
19340;HTU21D;9804;52.350;6.684;2022-12-07T17:00:40;7.46;-6.00
19340;HTU21D;9804;52.350;6.684;2022-12-07T17:03:06;7.47;-6.00
19340;HTU21D;9804;52.350;6.684;2022-12-07T17:05:32;7.32;-6.00
19340;HTU21D;9804;52.350;6.684;2022-12-07T17:07:57;7.22;-6.00
19340;HTU21D;9804;52.350;6.684;2022-12-07T17:10:23;7.41;-6.00
19340;HTU21D;9804;52.350;6.684;2022-12-07T17:12:50;7.49;-6.00
19340;HTU21D;9804;52.350;6.684;2022-12-07T17:15:16;7.49;-6.00
19340;HTU21D;9804;52.350;6.684;2022-12-07T17:17:42;7.34;-6.00
19340;HTU21D;9804;52.350;6.684;2022-12-07T17:20:07;7.35;-6.00
19340;HTU21D;9804;52.350;6.684;2022-12-07T17:22:33;7.27;-6.00
19340;HTU21D;9804;52.350;6.684;2022-12-07T17:24:58;7.32;-6.00
19340;HTU21D;9804;52.350;6.684;2022-12-07T17:27:23;7.14;-6.00
19340;HTU21D;9804;52.350;6.684;2022-12-07T17:29:49;7.03;-6.00
19340;HTU21D;9804;52.350;6.684;2022-12-07T17:32:14;7.28;-6.00
19340;HTU21D;9804;52.350;6.684;2022-12-07T17:34:40;7.05;-6.00
19340;HTU21D;9804;52.350;6.684;2022-12-07T17:37:05;7.12;-6.00
19340;HTU21D;9804;52.350;6.684;2022-12-07T17:39:30;7.08;-6.00